createdAt,value
2019-02-10T00:01:22.292Z,3.13
2019-02-10T00:04:26.348Z,2.80
2019-02-10T00:07:30.390Z,2.50
2019-02-10T00:10:34.443Z,1.80
2019-02-10T00:13:38.480Z,1.77
2019-02-10T00:16:42.532Z,3.00
2019-02-10T00:19:46.616Z,2.90
2019-02-10T00:22:50.651Z,2.70
2019-02-10T00:25:54.706Z,2.23
2019-02-10T00:28:58.736Z,2.37
2019-02-10T00:32:02.794Z,2.57
2019-02-10T00:35:06.824Z,2.00
2019-02-10T00:38:10.879Z,5.53
2019-02-10T00:41:14.975Z,1.83
2019-02-10T00:44:19.016Z,1.77
2019-02-10T00:47:23.068Z,2.53
2019-02-10T00:50:27.100Z,2.37
2019-02-10T00:53:31.152Z,2.50
2019-02-10T00:56:35.184Z,2.00
2019-02-10T00:59:39.239Z,1.93
2019-02-10T01:02:43.288Z,2.30
2019-02-10T01:05:47.315Z,1.80
2019-02-10T01:08:51.366Z,3.10
2019-02-10T01:11:55.424Z,3.47
2019-02-10T01:14:59.451Z,1.93
2019-02-10T01:18:03.507Z,2.37
2019-02-10T01:21:07.542Z,3.00
2019-02-10T01:24:11.595Z,2.00
2019-02-10T01:27:15.652Z,3.20
2019-02-10T01:30:20.684Z,2.30
2019-02-10T01:33:24.738Z,2.00
2019-02-10T01:36:28.763Z,2.90
2019-02-10T01:39:32.815Z,2.53
2019-02-10T01:42:36.869Z,1.53
2019-02-10T01:45:40.903Z,3.27
2019-02-10T01:48:44.951Z,2.93
2019-02-10T01:51:49.016Z,1.30
2019-02-10T01:54:53.068Z,2.87
2019-02-10T01:57:57.156Z,2.40
2019-02-10T02:01:01.187Z,2.40
2019-02-10T02:04:05.247Z,2.07
2019-02-10T02:07:09.275Z,2.20
2019-02-10T02:10:13.599Z,2.47
2019-02-10T02:13:17.651Z,2.80
2019-02-10T02:16:21.679Z,3.13
2019-02-10T02:19:25.741Z,4.07
2019-02-10T02:22:29.792Z,1.67
2019-02-10T02:25:33.819Z,2.63
2019-02-10T02:28:37.871Z,1.40
2019-02-10T02:31:41.905Z,1.43
2019-02-10T02:34:45.958Z,1.80
2019-02-10T02:37:50.012Z,2.33
2019-02-10T02:40:54.057Z,1.37
2019-02-10T02:43:58.104Z,2.70
2019-02-10T02:47:02.131Z,1.83
2019-02-10T02:50:10.656Z,2.07
2019-02-10T02:53:14.687Z,2.90
2019-02-10T02:56:18.741Z,3.33
2019-02-10T02:59:22.798Z,1.67
2019-02-10T03:02:26.829Z,1.60
2019-02-10T03:05:30.883Z,2.27
2019-02-10T03:08:34.910Z,1.50
2019-02-10T03:11:38.965Z,1.60
2019-02-10T03:14:43.018Z,2.97
2019-02-10T03:17:47.051Z,2.20
2019-02-10T03:20:51.104Z,2.50
2019-02-10T03:23:55.158Z,2.77
2019-02-10T03:26:59.193Z,1.93
2019-02-10T03:30:03.414Z,1.87
2019-02-10T03:33:07.445Z,2.27
2019-02-10T03:36:11.491Z,1.80
2019-02-10T03:39:15.561Z,1.90
2019-02-10T03:42:19.654Z,1.50
2019-02-10T03:45:23.708Z,1.87
2019-02-10T03:48:27.737Z,1.30
2019-02-10T03:51:31.795Z,1.50
2019-02-10T03:54:35.852Z,2.07
2019-02-10T03:57:39.884Z,2.33
2019-02-10T04:00:43.938Z,2.50
2019-02-10T04:03:47.968Z,1.43
2019-02-10T04:06:52.021Z,1.63
2019-02-10T04:09:56.074Z,1.33
2019-02-10T04:13:00.102Z,1.73
2019-02-10T04:16:04.163Z,1.47
2019-02-10T04:19:08.218Z,2.77
2019-02-10T04:22:12.240Z,1.10
2019-02-10T04:25:16.291Z,1.07
2019-02-10T04:28:20.324Z,1.30
2019-02-10T04:31:24.383Z,1.70
2019-02-10T04:34:28.431Z,2.00
2019-02-10T04:37:32.464Z,2.00
2019-02-10T04:40:36.521Z,2.03
2019-02-10T04:43:40.550Z,2.13
2019-02-10T04:46:44.606Z,1.63
2019-02-10T04:49:48.659Z,1.40
2019-02-10T04:52:52.695Z,0.97
2019-02-10T04:56:08.615Z,1.80
2019-02-10T04:59:12.668Z,1.13
2019-02-10T05:02:16.706Z,2.67
2019-02-10T05:05:20.757Z,1.30
2019-02-10T05:08:24.801Z,1.63
2019-02-10T05:11:28.844Z,1.80
2019-02-10T05:14:32.899Z,1.37
2019-02-10T05:17:36.928Z,1.63
2019-02-10T05:20:40.987Z,1.60
2019-02-10T05:23:45.104Z,1.70
2019-02-10T05:26:49.333Z,1.27
2019-02-10T05:29:53.383Z,1.37
2019-02-10T05:32:57.426Z,1.13
2019-02-10T05:36:01.479Z,0.87
2019-02-10T05:39:05.876Z,1.80
2019-02-10T05:42:09.927Z,1.67
2019-02-10T05:45:13.981Z,1.17
2019-02-10T05:48:18.016Z,1.33
2019-02-10T05:51:22.066Z,1.47
2019-02-10T05:54:26.096Z,1.33
2019-02-10T05:57:30.153Z,0.97
2019-02-10T06:00:34.204Z,0.80
2019-02-10T06:03:38.238Z,1.23
2019-02-10T06:06:42.286Z,1.17
2019-02-10T06:09:46.344Z,1.00
2019-02-10T06:12:50.444Z,1.00
2019-02-10T06:15:54.497Z,1.77
2019-02-10T06:18:58.526Z,1.83
2019-02-10T06:22:02.582Z,1.30
2019-02-10T06:25:08.174Z,1.43
2019-02-10T06:28:12.204Z,1.33
2019-02-10T06:31:16.260Z,0.77
2019-02-10T06:34:20.290Z,1.57
2019-02-10T06:37:24.343Z,1.10
2019-02-10T06:40:28.397Z,1.33
2019-02-10T06:43:32.436Z,1.57
2019-02-10T06:46:36.542Z,1.20
2019-02-10T06:49:40.577Z,1.73
2019-02-10T06:52:44.626Z,2.47
2019-02-10T06:55:48.681Z,1.27
2019-02-10T06:58:52.722Z,1.27
2019-02-10T07:01:58.417Z,1.10
2019-02-10T07:05:02.474Z,1.27
2019-02-10T07:08:06.579Z,1.63
2019-02-10T07:11:10.630Z,0.73
2019-02-10T07:14:17.923Z,1.30
2019-02-10T07:17:25.230Z,0.87
2019-02-10T07:20:40.144Z,1.33
2019-02-10T07:24:05.621Z,1.10
2019-02-10T07:27:15.951Z,0.70
2019-02-10T07:30:23.260Z,1.07
2019-02-10T07:34:05.592Z,0.97
2019-02-10T07:37:15.472Z,1.00
2019-02-10T07:40:31.455Z,1.03
2019-02-10T07:44:07.699Z,0.67
2019-02-10T07:47:26.792Z,1.33
2019-02-10T07:50:56.133Z,0.90
2019-02-10T07:54:20.363Z,1.87
2019-02-10T07:57:30.356Z,1.00
2019-02-10T08:00:43.319Z,1.67
2019-02-10T08:03:59.459Z,0.77
2019-02-10T08:07:09.551Z,0.80
2019-02-10T08:10:31.960Z,2.00
2019-02-10T08:14:01.795Z,1.20
2019-02-10T08:17:18.066Z,3.03
2019-02-10T08:20:30.952Z,1.40
2019-02-10T08:23:53.192Z,2.53
2019-02-10T08:27:00.506Z,2.07
2019-02-10T08:30:39.564Z,3.10
2019-02-10T08:34:03.351Z,4.93
2019-02-10T08:37:13.470Z,7.53
2019-02-10T08:40:29.673Z,8.73
2019-02-10T08:43:51.800Z,11.30
2019-02-10T08:47:01.855Z,7.20
2019-02-10T08:50:21.099Z,8.10
2019-02-10T08:53:25.824Z,9.90
2019-02-10T08:56:29.861Z,10.23
2019-02-10T08:59:33.921Z,10.30
2019-02-10T09:02:37.976Z,7.53
2019-02-10T09:05:42.009Z,10.43
2019-02-10T09:08:46.069Z,8.33
2019-02-10T09:11:50.105Z,8.10
2019-02-10T09:14:54.152Z,9.38
2019-02-10T09:17:58.204Z,8.50
2019-02-10T09:21:02.237Z,6.30
2019-02-10T09:24:06.279Z,7.87
2019-02-10T09:27:10.308Z,6.00
2019-02-10T09:30:14.394Z,12.77
2019-02-10T09:33:18.442Z,4.70
2019-02-10T09:36:22.475Z,4.50
2019-02-10T09:39:26.537Z,5.70
2019-02-10T09:42:30.641Z,8.17
2019-02-10T09:45:34.691Z,5.22
2019-02-10T09:48:38.720Z,7.37
2019-02-10T09:51:42.777Z,7.63
2019-02-10T09:54:46.834Z,4.87
2019-02-10T09:57:50.864Z,5.27
2019-02-10T10:00:54.921Z,4.60
2019-02-10T10:03:58.957Z,4.80
2019-02-10T10:07:03.012Z,3.50
2019-02-10T10:10:09.770Z,5.37
2019-02-10T10:13:13.802Z,5.47
2019-02-10T10:16:17.860Z,5.20
2019-02-10T10:19:21.896Z,7.87
2019-02-10T10:22:25.951Z,5.67
2019-02-10T10:25:30.003Z,3.20
2019-02-10T10:28:34.035Z,4.93
2019-02-10T10:31:38.088Z,3.67
2019-02-10T10:34:42.146Z,4.50
2019-02-10T10:37:46.175Z,3.63
2019-02-10T10:40:50.227Z,3.07
2019-02-10T10:43:54.266Z,4.25
2019-02-10T10:46:58.323Z,4.83
2019-02-10T10:50:02.382Z,5.63
2019-02-10T10:53:06.419Z,4.13
2019-02-10T10:56:10.471Z,3.77
2019-02-10T10:59:14.503Z,3.43
2019-02-10T11:02:18.560Z,4.90
2019-02-10T11:05:22.630Z,4.57
2019-02-10T11:08:26.660Z,3.97
2019-02-10T11:11:30.719Z,2.90
2019-02-10T11:14:34.779Z,3.40
2019-02-10T11:17:38.825Z,3.43
2019-02-10T11:20:42.876Z,2.83
2019-02-10T11:23:46.908Z,3.20
2019-02-10T11:26:50.964Z,2.97
2019-02-10T11:29:55.006Z,4.22
2019-02-10T11:32:59.066Z,3.73
2019-02-10T11:36:03.124Z,8.80
2019-02-10T11:39:07.158Z,1.93
2019-02-10T11:42:11.212Z,3.40
2019-02-10T11:45:15.513Z,4.43
2019-02-10T11:48:19.566Z,5.07
2019-02-10T11:51:23.619Z,3.17
2019-02-10T11:54:27.652Z,4.23
2019-02-10T11:57:31.706Z,5.40
2019-02-10T12:00:35.763Z,3.10
2019-02-10T12:03:39.818Z,3.30
2019-02-10T12:06:43.873Z,2.90
2019-02-10T12:09:51.684Z,3.13
2019-02-10T12:12:53.657Z,2.83
2019-02-10T12:15:57.712Z,3.07
2019-02-10T12:19:01.754Z,7.08
2019-02-10T12:22:06.711Z,1.53
2019-02-10T12:25:10.914Z,4.33
2019-02-10T12:28:14.969Z,3.73
2019-02-10T12:31:19.022Z,3.80
2019-02-10T12:34:23.051Z,2.43
2019-02-10T12:37:32.299Z,1.73
2019-02-10T12:40:32.836Z,3.43
2019-02-10T12:43:36.890Z,2.40
2019-02-10T12:46:40.944Z,2.40
2019-02-10T12:49:44.980Z,2.50
2019-02-10T12:52:49.035Z,2.37
2019-02-10T12:55:53.068Z,2.90
2019-02-10T12:58:57.124Z,2.20
2019-02-10T13:02:01.180Z,2.57
2019-02-10T13:05:06.357Z,3.00
2019-02-10T13:08:10.412Z,2.17
2019-02-10T13:11:14.467Z,3.77
2019-02-10T13:14:18.508Z,2.00
2019-02-10T13:17:22.565Z,1.40
2019-02-10T13:20:26.599Z,1.87
2019-02-10T13:23:30.654Z,3.50
2019-02-10T13:26:34.704Z,2.50
2019-02-10T13:29:38.737Z,2.40
2019-02-10T13:32:45.779Z,2.00
2019-02-10T13:35:49.814Z,2.70
2019-02-10T13:38:53.870Z,2.27
2019-02-10T13:41:56.980Z,2.47
2019-02-10T13:45:01.011Z,2.13
2019-02-10T13:48:05.068Z,2.60
2019-02-10T13:51:09.153Z,2.37
2019-02-10T13:54:13.207Z,1.70
2019-02-10T13:57:17.264Z,2.37
2019-02-10T14:00:23.600Z,1.62
2019-02-10T14:03:27.652Z,2.57
2019-02-10T14:06:31.709Z,3.50
2019-02-10T14:09:35.742Z,2.13
2019-02-10T14:12:39.797Z,2.60
2019-02-10T14:15:43.832Z,2.20
2019-02-10T14:18:47.879Z,3.83
2019-02-10T14:21:51.935Z,2.40
2019-02-10T14:24:56.068Z,1.77
2019-02-10T14:28:00.124Z,2.03
2019-02-10T14:31:04.162Z,1.80
2019-02-10T14:34:08.213Z,1.47
2019-02-10T14:37:12.272Z,2.80
2019-02-10T14:40:16.307Z,4.10
2019-02-10T14:43:20.360Z,3.13
2019-02-10T14:46:24.387Z,1.30
2019-02-10T14:49:28.439Z,1.77
2019-02-10T14:52:32.509Z,1.20
2019-02-10T14:55:36.588Z,4.57
2019-02-10T14:58:43.108Z,2.53
2019-02-10T15:01:46.327Z,1.57
2019-02-10T15:04:50.384Z,1.60
2019-02-10T15:07:54.448Z,3.50
2019-02-10T15:10:58.471Z,1.47
2019-02-10T15:14:02.529Z,1.17
2019-02-10T15:17:06.579Z,1.60
2019-02-10T15:20:12.608Z,1.90
2019-02-10T15:23:16.662Z,2.93
2019-02-10T15:26:20.710Z,1.57
2019-02-10T15:29:24.767Z,1.60
2019-02-10T15:32:28.826Z,1.90
2019-02-10T15:35:32.847Z,1.43
2019-02-10T15:38:36.904Z,1.33
2019-02-10T15:41:40.935Z,1.73
2019-02-10T15:44:45.772Z,3.17
2019-02-10T15:47:49.928Z,1.47
2019-02-10T15:50:53.964Z,3.20
2019-02-10T15:53:58.019Z,3.27
2019-02-10T15:57:02.108Z,1.67
2019-02-10T16:00:12.305Z,1.53
2019-02-10T16:03:16.530Z,1.30
2019-02-10T16:06:20.561Z,0.60
2019-02-10T16:09:24.614Z,2.30
2019-02-10T16:12:28.729Z,1.37
2019-02-10T16:15:32.789Z,1.43
2019-02-10T16:18:36.852Z,2.20
2019-02-10T16:21:40.879Z,2.10
2019-02-10T16:24:44.931Z,1.43
2019-02-10T16:27:48.997Z,1.93
2019-02-10T16:30:53.031Z,1.13
2019-02-10T16:33:57.084Z,1.60
2019-02-10T16:37:01.115Z,1.77
2019-02-10T16:40:08.444Z,1.23
2019-02-10T16:43:12.500Z,1.17
2019-02-10T16:46:16.538Z,4.75
2019-02-10T16:49:20.596Z,1.83
2019-02-10T16:52:24.635Z,0.87
2019-02-10T16:55:28.679Z,1.30
2019-02-10T16:58:32.739Z,1.27
2019-02-10T17:01:37.059Z,0.60
2019-02-10T17:04:41.376Z,1.23
2019-02-10T17:07:45.516Z,0.80
2019-02-10T17:10:49.763Z,1.33
2019-02-10T17:13:54.080Z,1.63
2019-02-10T17:16:58.305Z,1.07
2019-02-10T17:20:02.673Z,0.73
2019-02-10T17:23:06.924Z,2.13
2019-02-10T17:26:11.075Z,1.00
2019-02-10T17:29:15.127Z,0.83
2019-02-10T17:32:19.163Z,0.60
2019-02-10T17:35:23.222Z,1.70
2019-02-10T17:38:28.392Z,1.87
2019-02-10T17:41:32.447Z,2.00
2019-02-10T17:44:36.499Z,1.10
2019-02-10T17:47:40.532Z,1.23
2019-02-10T17:50:44.594Z,2.00
2019-02-10T17:53:48.645Z,1.50
2019-02-10T17:56:52.682Z,1.63
2019-02-10T17:59:56.730Z,0.70
2019-02-10T18:03:00.764Z,1.17
2019-02-10T18:06:04.815Z,0.90
2019-02-10T18:09:08.880Z,1.98
2019-02-10T18:12:12.922Z,1.10
2019-02-10T18:15:30.376Z,1.53
2019-02-10T18:18:41.984Z,0.90
2019-02-10T18:21:53.847Z,1.93
2019-02-10T18:25:17.734Z,2.70
2019-02-10T18:28:38.723Z,1.97
2019-02-10T18:32:01.240Z,1.73
2019-02-10T18:35:24.555Z,1.73
2019-02-10T18:38:48.613Z,2.67
2019-02-10T18:42:03.208Z,1.63
2019-02-10T18:45:12.020Z,1.17
2019-02-10T18:48:32.812Z,1.63
2019-02-10T18:51:38.486Z,1.10
2019-02-10T18:54:47.128Z,5.30
2019-02-10T18:58:05.015Z,3.23
2019-02-10T19:01:25.715Z,2.73
2019-02-10T19:04:47.785Z,3.27
2019-02-10T19:08:02.492Z,1.70
2019-02-10T19:11:13.863Z,1.63
2019-02-10T19:14:22.174Z,2.57
2019-02-10T19:17:36.835Z,2.50
2019-02-10T19:20:42.522Z,1.03
2019-02-10T19:23:48.197Z,1.00
2019-02-10T19:27:02.851Z,1.33
2019-02-10T19:30:28.049Z,0.70
2019-02-10T19:33:33.720Z,0.80
2019-02-10T19:36:39.419Z,0.70
2019-02-10T19:39:50.607Z,1.07
2019-02-10T19:42:56.304Z,0.60
2019-02-10T19:46:17.921Z,0.70
2019-02-10T19:49:23.592Z,2.10
2019-02-10T19:52:32.288Z,1.93
2019-02-10T19:55:49.767Z,1.47
2019-02-10T19:59:11.907Z,0.70
2019-02-10T20:02:35.904Z,1.10
2019-02-10T20:05:47.552Z,1.00
2019-02-10T20:08:56.215Z,2.70
2019-02-10T20:12:16.972Z,1.40
2019-02-10T20:15:25.723Z,1.17
2019-02-10T20:18:34.181Z,1.47
2019-02-10T20:21:42.520Z,4.07
2019-02-10T20:24:56.982Z,1.13
2019-02-10T20:28:02.677Z,2.03
2019-02-10T20:31:08.348Z,0.97
2019-02-10T20:34:22.800Z,1.53
2019-02-10T20:37:45.050Z,1.13
2019-02-10T20:40:56.880Z,2.83
2019-02-10T20:44:08.068Z,1.63
2019-02-10T20:47:29.817Z,3.40
2019-02-10T20:50:38.475Z,0.73
2019-02-10T20:53:49.890Z,1.43
2019-02-10T20:57:04.808Z,0.73
2019-02-10T21:00:14.940Z,1.63
2019-02-10T21:03:20.632Z,1.30
2019-02-10T21:06:41.037Z,1.37
2019-02-10T21:09:49.255Z,1.23
2019-02-10T21:13:07.240Z,1.00
2019-02-10T21:16:21.660Z,1.70
2019-02-10T21:19:39.474Z,1.30
2019-02-10T21:22:45.142Z,2.63
2019-02-10T21:25:52.740Z,1.23
2019-02-10T21:29:04.247Z,0.93
2019-02-10T21:32:12.733Z,0.70
2019-02-10T21:35:18.423Z,1.63
2019-02-10T21:38:27.165Z,1.77
2019-02-10T21:41:38.847Z,1.77
2019-02-10T21:44:47.226Z,0.70
2019-02-10T21:47:52.883Z,0.60
2019-02-10T21:50:56.936Z,1.33
2019-02-10T21:54:00.967Z,0.90
2019-02-10T21:57:05.021Z,1.20
2019-02-10T22:00:12.544Z,1.30
2019-02-10T22:03:16.577Z,1.03
2019-02-10T22:06:20.632Z,1.47
2019-02-10T22:09:24.665Z,0.97
2019-02-10T22:12:36.826Z,0.40
2019-02-10T22:15:34.468Z,1.07
2019-02-10T22:18:38.499Z,2.03
2019-02-10T22:21:42.553Z,0.83
2019-02-10T22:24:46.605Z,1.43
2019-02-10T22:27:50.644Z,1.80
2019-02-10T22:30:54.700Z,0.40
2019-02-10T22:33:58.736Z,1.07
2019-02-10T22:37:02.778Z,1.63
2019-02-10T22:40:09.733Z,1.40
2019-02-10T22:43:13.763Z,0.63
2019-02-10T22:46:17.819Z,1.30
2019-02-10T22:49:21.852Z,0.80
2019-02-10T22:52:25.902Z,0.87
2019-02-10T22:55:29.961Z,1.07
2019-02-10T22:58:33.991Z,0.47
2019-02-10T23:01:38.049Z,0.70
2019-02-10T23:04:42.120Z,1.00
2019-02-10T23:07:46.182Z,1.10
2019-02-10T23:10:51.948Z,0.50
2019-02-10T23:13:56.148Z,0.40
2019-02-10T23:17:00.241Z,0.50
2019-02-10T23:20:05.622Z,1.03
2019-02-10T23:23:09.653Z,0.70
2019-02-10T23:26:13.709Z,2.40
2019-02-10T23:29:17.739Z,1.07
2019-02-10T23:32:21.802Z,1.70
2019-02-10T23:35:25.850Z,0.73
2019-02-10T23:38:29.879Z,1.13
2019-02-10T23:41:33.931Z,1.17
2019-02-10T23:44:37.969Z,0.53
2019-02-10T23:47:42.033Z,0.70
2019-02-10T23:50:46.092Z,0.80
2019-02-10T23:53:50.119Z,0.47
2019-02-10T23:56:54.171Z,0.47
2019-02-10T23:59:58.201Z,2.13
